»·PEaware :: N31SL KVNY-KSNA

N31SL :: KVNY-KSNA

FLIGHT INFORMATION

Flight Status: Arrived
Operator: Privately registered:
United States
More flights under this callsign
Pilot: Julien M. (24307)
Aircraft: Unknown
(DA62)
More flights by this aircraft type
Origin: KVNY Van Nuys
United States
Destination: KSNA John Wayne-Orange Co
United States
More flights between these airports :: More routes between these airports
Route: +
File this flight plan on PilotEdge
Remarks: FFS - Cat 10
Altitude:
(Current/Filed)
5,500ft
Speed:
(Current/Filed)
0kts
Departed: 24-Apr-19 01:42 PM
Arrived: 24-Apr-19 02:38 PM
Distance/Time
Traveled:
44nm/0:56
Distance/Time
To Go:
Arrived

Flight Plot

Page will automatically refresh every two minutes.


Map Options




Map Legend


Flown Route
Filed Route
Departure Airport
Arrival Airport
Navaid (VOR, NDB)
Fix

Horizontal Profiles

Position Reports

Time Latitude Longitude Heading Altitude Ground
Speed
24-Apr-19 13:32 34.218335 -118.494298 175 806ft 0kts
24-Apr-19 13:33 34.218335 -118.494298 175 806ft 0kts
24-Apr-19 13:34 34.218335 -118.494298 175 806ft 0kts
24-Apr-19 13:35 34.218335 -118.494298 175 806ft 0kts
24-Apr-19 13:36 34.218335 -118.494298 175 806ft 0kts
24-Apr-19 13:37 34.218335 -118.494298 175 806ft 0kts
24-Apr-19 13:38 34.217506 -118.492281 358 806ft 17kts
24-Apr-19 13:39 34.218753 -118.492005 72 806ft 0kts
24-Apr-19 13:40 34.218470 -118.491225 161 806ft 15kts
24-Apr-19 13:41 34.198130 -118.490018 180 1313ft 104kts
24-Apr-19 13:42 34.177734 -118.489331 172 2001ft 105kts
24-Apr-19 13:43 34.148737 -118.485609 173 2566ft 103kts
24-Apr-19 13:44 34.119762 -118.477438 151 2662ft 100kts
24-Apr-19 13:45 34.091030 -118.471911 192 3048ft 119kts
24-Apr-19 13:46 34.060366 -118.482111 191 3867ft 116kts
24-Apr-19 13:47 34.028176 -118.476766 163 4964ft 120kts
24-Apr-19 13:48 34.002350 -118.466803 153 5486ft 126kts
24-Apr-19 13:49 33.993134 -118.461145 152 5447ft 131kts
24-Apr-19 13:50 33.993134 -118.461145 152 5447ft 131kts
24-Apr-19 13:51 33.993134 -118.461145 152 5447ft 131kts
24-Apr-19 13:52 34.218340 -118.494298 175 806ft 0kts
24-Apr-19 13:53 34.218340 -118.494298 175 806ft 0kts
24-Apr-19 13:54 34.218340 -118.494298 175 806ft 0kts
24-Apr-19 13:55 34.218340 -118.494298 175 806ft 0kts
24-Apr-19 13:56 34.218340 -118.494298 175 806ft 0kts
24-Apr-19 13:57 34.217344 -118.494083 138 806ft 17kts
24-Apr-19 13:58 34.218738 -118.492064 65 806ft 0kts
24-Apr-19 13:59 34.218738 -118.492062 65 806ft 0kts
24-Apr-19 14:00 34.205184 -118.490142 175 1091ft 93kts
24-Apr-19 14:01 34.188266 -118.508677 266 1781ft 122kts
24-Apr-19 14:02 34.185923 -118.551746 265 1951ft 123kts
24-Apr-19 14:03 34.183802 -118.592184 266 2403ft 119kts
24-Apr-19 14:04 34.179109 -118.633099 259 2624ft 129kts
24-Apr-19 14:05 34.162096 -118.661070 132 3032ft 133kts
24-Apr-19 14:06 34.150599 -118.631424 136 3927ft 108kts
24-Apr-19 14:07 34.147698 -118.637652 59 5096ft 110kts
24-Apr-19 14:08 34.133633 -118.646369 294 5451ft 124kts
24-Apr-19 14:09 34.152947 -118.638862 62 5493ft 130kts
24-Apr-19 14:10 34.160813 -118.606588 98 5410ft 149kts
24-Apr-19 14:11 34.152585 -118.555848 100 5305ft 153kts
24-Apr-19 14:12 34.135092 -118.519579 179 5448ft 145kts
24-Apr-19 14:13 34.094938 -118.507799 151 5486ft 153kts
24-Apr-19 14:14 34.055362 -118.490795 154 5382ft 149kts
24-Apr-19 14:15 34.018263 -118.470536 157 5436ft 146kts
24-Apr-19 14:16 33.980040 -118.452729 157 5436ft 148kts
24-Apr-19 14:17 33.941419 -118.434615 157 5435ft 148kts
24-Apr-19 14:18 33.907652 -118.407882 114 5390ft 150kts
24-Apr-19 14:19 33.883463 -118.370875 143 5436ft 147kts
24-Apr-19 14:20 33.851154 -118.340577 140 5436ft 148kts
24-Apr-19 14:21 33.819705 -118.308705 139 5435ft 149kts
24-Apr-19 14:22 33.788486 -118.275911 138 5435ft 149kts
24-Apr-19 14:23 33.763137 -118.238538 99 5437ft 147kts
24-Apr-19 14:24 33.753807 -118.192560 105 4856ft 134kts
24-Apr-19 14:25 33.743734 -118.150347 106 4249ft 129kts
24-Apr-19 14:26 33.736867 -118.121697 105 3841ft 136kts
24-Apr-19 14:27 33.736867 -118.121697 105 3841ft 136kts
24-Apr-19 14:28 33.732203 -118.102275 106 3613ft 151kts
24-Apr-19 14:29 33.720464 -118.053469 106 3011ft 147kts
24-Apr-19 14:30 33.709080 -118.006229 106 2467ft 142kts
24-Apr-19 14:31 33.698873 -117.963938 106 2453ft 126kts
24-Apr-19 14:32 33.689141 -117.923676 106 2454ft 125kts
24-Apr-19 14:33 33.690590 -117.892059 30 1720ft 102kts
24-Apr-19 14:34 33.711890 -117.875198 58 1390ft 106kts
24-Apr-19 14:35 33.696293 -117.853809 216 992ft 99kts
24-Apr-19 14:37 33.675651 -117.868866 207 60ft 59kts
24-Apr-19 14:38 33.674135 -117.870581 299 60ft 2kts
24-Apr-19 14:39 33.675110 -117.871592 217 60ft 0kts

Navigation Log

Ident Type
Flight plan parsing failed, navigation log unavailable